Time;durP1;ratioP1;P1;durP2;ratioP2;P2;SDS_P1;SDS_P2;PMS_P1;PMS_P2;Temp;Humidity;BMP_temperature;BMP_pressure;BME280_temperature;BME280_humidity;BME280_pressure;Samples;Min_cycle;Max_cycle;Signal;HPM_P1;HPM_P2
2023/09/25 00:00:41;;;;;;;5.20;4.18;;;;;;;10.41;81.17;102206.34;7397536;19;20482;-68
2023/09/25 00:03:09;;;;;;;5.80;3.90;;;;;;;10.35;81.28;102201.06;7397094;19;20027;-67
2023/09/25 00:05:37;;;;;;;5.65;4.22;;;;;;;10.30;81.20;102207.16;7397325;19;20125;-67
2023/09/25 00:08:06;;;;;;;4.97;3.83;;;;;;;10.24;81.29;102208.88;7396634;19;20031;-69
2023/09/25 00:10:38;;;;;;;4.40;3.70;;;;;;;10.20;81.23;102199.25;7397495;19;20027;-68
2023/09/25 00:13:07;;;;;;;5.20;3.58;;;;;;;10.16;81.13;102204.47;7396772;19;20017;-67
2023/09/25 00:15:35;;;;;;;8.60;4.15;;;;;;;10.12;81.14;102200.97;7396731;19;20038;-67
2023/09/25 00:18:04;;;;;;;4.43;3.92;;;;;;;10.08;81.17;102204.44;7397231;19;20018;-68
2023/09/25 00:20:33;;;;;;;5.03;4.05;;;;;;;10.03;81.23;102204.44;7397206;19;20420;-68
2023/09/25 00:23:01;;;;;;;4.78;4.22;;;;;;;9.99;81.33;102207.06;7396274;19;20569;-68
2023/09/25 00:25:31;;;;;;;5.40;4.72;;;;;;;9.95;81.42;102195.66;7397037;19;20042;-67
2023/09/25 00:28:02;;;;;;;7.03;4.75;;;;;;;9.94;81.46;102200.06;7396991;19;20014;-69
2023/09/25 00:30:31;;;;;;;6.85;4.78;;;;;;;9.90;81.56;102195.63;7396761;19;20480;-67
2023/09/25 00:32:59;;;;;;;5.22;4.70;;;;;;;9.89;81.83;102195.63;7396265;19;20074;-68
2023/09/25 00:35:28;;;;;;;6.28;5.35;;;;;;;9.88;81.88;102199.13;7396338;19;20031;-67
2023/09/25 00:37:56;;;;;;;6.10;5.28;;;;;;;9.87;81.96;102200.00;7396636;19;20359;-68
2023/09/25 00:40:25;;;;;;;6.05;5.40;;;;;;;9.86;82.09;102199.13;7396711;19;20117;-68
2023/09/25 00:42:56;;;;;;;5.50;4.97;;;;;;;9.84;82.35;102203.47;7395752;19;20014;-67
2023/09/25 00:45:28;;;;;;;5.00;4.50;;;;;;;9.82;82.39;102196.47;7396838;19;20007;-67
2023/09/25 00:47:57;;;;;;;5.45;4.95;;;;;;;9.78;82.63;102193.84;7396160;19;20370;-67
2023/09/25 00:50:29;;;;;;;6.22;5.20;;;;;;;9.76;82.61;102195.56;7394321;19;20014;-67
2023/09/25 00:53:00;;;;;;;6.13;5.03;;;;;;;9.75;82.91;102187.72;7396170;19;20017;-67
2023/09/25 00:55:29;;;;;;;6.50;5.28;;;;;;;9.73;83.00;102184.19;7396412;19;20010;-68
2023/09/25 00:57:58;;;;;;;6.57;5.47;;;;;;;9.71;83.28;102180.72;7394052;19;20011;-69
2023/09/25 01:00:29;;;;;;;5.88;5.38;;;;;;;9.69;83.46;102182.44;7396057;19;20011;-68
2023/09/25 01:02:58;;;;;;;7.13;6.00;;;;;;;9.69;83.54;102188.56;7395044;19;20502;-68
2023/09/25 01:05:26;;;;;;;6.32;5.03;;;;;;;9.67;83.72;102178.91;7393747;19;20386;-66
2023/09/25 01:07:55;;;;;;;7.15;5.05;;;;;;;9.69;83.77;102174.56;7395728;19;20083;-68
2023/09/25 01:10:23;;;;;;;6.65;5.45;;;;;;;9.67;84.08;102168.44;7395677;19;20010;-70
2023/09/25 01:12:53;;;;;;;8.27;5.75;;;;;;;9.67;84.04;102178.91;7395953;19;20014;-69
2023/09/25 01:15:21;;;;;;;6.53;5.82;;;;;;;9.62;84.30;102166.69;7393769;19;20070;-68
2023/09/25 01:17:53;;;;;;;8.30;5.88;;;;;;;9.65;84.39;102180.69;7394800;19;20018;-69
2023/09/25 01:20:22;;;;;;;7.38;5.70;;;;;;;9.64;84.55;102173.69;7392286;19;20011;-68
2023/09/25 01:22:53;;;;;;;6.82;5.18;;;;;;;9.63;84.56;102167.56;7394798;19;20372;-69
2023/09/25 01:25:23;;;;;;;6.35;5.28;;;;;;;9.60;84.62;102168.44;7394066;19;20075;-68
2023/09/25 01:27:52;;;;;;;5.20;4.70;;;;;;;9.58;84.75;102166.69;7395260;19;20031;-69
2023/09/25 01:30:21;;;;;;;6.70;5.10;;;;;;;9.55;84.77;102161.41;7393463;19;20038;-69
2023/09/25 01:32:51;;;;;;;8.25;6.38;;;;;;;9.52;84.85;102169.25;7394841;19;20011;-69
2023/09/25 01:35:23;;;;;;;7.30;6.22;;;;;;;9.51;85.04;102164.88;7395671;19;20014;-68
2023/09/25 01:37:58;;;;;;;7.50;6.28;;;;;;;9.50;85.27;102165.75;7393644;19;20037;-70
2023/09/25 01:40:27;;;;;;;8.10;6.72;;;;;;;9.49;85.21;102164.00;7395246;19;20024;-69
2023/09/25 01:42:56;;;;;;;7.68;6.88;;;;;;;9.51;85.51;102157.88;7394303;19;20014;-69
2023/09/25 01:45:25;;;;;;;8.07;6.95;;;;;;;9.51;85.67;102160.50;7394329;19;20375;-69
2023/09/25 01:47:54;;;;;;;7.15;6.45;;;;;;;9.52;85.80;102161.41;7394625;19;20086;-70
2023/09/25 01:50:25;;;;;;;8.38;7.18;;;;;;;9.51;85.86;102157.88;7392874;19;20014;-68
2023/09/25 01:52:59;;;;;;;7.95;7.13;;;;;;;9.50;86.06;102153.50;7394398;19;20020;-69
2023/09/25 01:55:31;;;;;;;10.07;7.13;;;;;;;9.51;86.19;102152.66;7394181;19;20011;-68
2023/09/25 01:58:00;;;;;;;10.38;7.65;;;;;;;9.51;86.29;102157.03;7392216;19;20025;-70
2023/09/25 02:00:28;;;;;;;7.53;6.82;;;;;;;9.51;86.38;102147.41;7392016;19;20020;-68
2023/09/25 02:02:57;;;;;;;7.88;7.13;;;;;;;9.50;86.55;102156.13;7393766;19;20018;-69
2023/09/25 02:05:26;;;;;;;8.77;6.78;;;;;;;9.50;86.85;102156.13;7395618;19;20015;-68
2023/09/25 02:07:57;;;;;;;9.50;7.57;;;;;;;9.51;87.09;102155.28;7396496;19;20344;-69
2023/09/25 02:10:25;;;;;;;7.65;6.85;;;;;;;9.51;87.27;102163.13;7394754;19;20485;-73
2023/09/25 02:12:54;;;;;;;9.48;7.13;;;;;;;9.51;87.41;102165.75;7393836;19;20081;-68
2023/09/25 02:15:23;;;;;;;8.38;7.18;;;;;;;9.51;87.56;102163.13;7391877;19;20011;-69
2023/09/25 02:17:51;;;;;;;9.90;8.18;;;;;;;9.51;87.63;102159.66;7391903;19;20019;-68
2023/09/25 02:20:20;;;;;;;9.40;7.78;;;;;;;9.51;87.75;102163.13;7393615;19;20360;-69
2023/09/25 02:22:51;;;;;;;11.55;7.60;;;;;;;9.51;87.92;102157.03;7393098;19;20078;-69
2023/09/25 02:25:22;;;;;;;9.07;7.22;;;;;;;9.50;88.09;102157.88;7393511;19;20065;-68
2023/09/25 02:27:50;;;;;;;9.18;7.38;;;;;;;9.49;88.11;102151.78;7393586;19;20010;-69
2023/09/25 02:30:19;;;;;;;8.77;7.53;;;;;;;9.50;88.30;102150.03;7397003;19;20019;-68
2023/09/25 02:32:47;;;;;;;9.07;8.00;;;;;;;9.49;88.23;102141.31;7398052;19;20014;-69
2023/09/25 02:35:16;;;;;;;10.80;7.70;;;;;;;9.49;88.42;102143.94;7400313;19;20014;-68
2023/09/25 02:37:45;;;;;;;9.60;8.30;;;;;;;9.48;88.52;102139.53;7398106;19;20477;-69
2023/09/25 02:40:14;;;;;;;8.93;7.68;;;;;;;9.47;88.46;102150.88;7400094;19;20388;-69
2023/09/25 02:42:47;;;;;;;8.80;7.90;;;;;;;9.47;88.57;102156.13;7400117;19;20022;-69
2023/09/25 02:45:16;;;;;;;10.23;7.75;;;;;;;9.45;88.46;102155.22;7400111;19;20014;-69
2023/09/25 02:47:44;;;;;;;9.02;7.57;;;;;;;9.43;88.49;102152.59;7400317;19;20021;-69
2023/09/25 02:50:13;;;;;;;10.32;7.78;;;;;;;9.43;88.65;102151.75;7396966;19;20035;-69
2023/09/25 02:52:42;;;;;;;9.43;7.30;;;;;;;9.41;88.60;102162.19;7399943;19;20104;-69
2023/09/25 02:55:11;;;;;;;7.60;6.80;;;;;;;9.37;88.57;102155.19;7400117;19;20023;-68
2023/09/25 02:57:40;;;;;;;8.60;5.90;;;;;;;9.33;88.38;102153.44;7397670;19;20014;-69
2023/09/25 03:00:12;;;;;;;5.95;5.10;;;;;;;9.26;87.98;102154.25;7399985;19;20022;-69
2023/09/25 03:02:41;;;;;;;6.32;5.18;;;;;;;9.16;87.70;102152.44;7397607;19;20015;-68
2023/09/25 03:05:10;;;;;;;6.05;4.72;;;;;;;9.08;87.44;102165.47;7398934;19;20505;-67
2023/09/25 03:07:39;;;;;;;5.38;4.88;;;;;;;8.98;86.94;102161.06;7400404;19;20021;-69
2023/09/25 03:10:08;;;;;;;7.90;4.95;;;;;;;8.88;86.78;102153.09;7398800;19;20510;-69
2023/09/25 03:12:37;;;;;;;5.38;4.88;;;;;;;8.79;86.80;102163.50;7399006;19;20014;-68
2023/09/25 03:15:07;;;;;;;6.50;4.70;;;;;;;8.72;86.54;102159.97;7399487;19;20015;-69
2023/09/25 03:17:38;;;;;;;6.45;5.72;;;;;;;8.67;86.58;102161.69;7397697;19;20014;-69
2023/09/25 03:20:14;;;;;;;8.27;5.63;;;;;;;8.64;86.38;102164.25;7397527;19;20023;-69
2023/09/25 03:22:43;;;;;;;6.80;6.00;;;;;;;8.61;86.35;102164.22;7399302;19;20138;-69
2023/09/25 03:25:12;;;;;;;6.47;5.10;;;;;;;8.58;86.22;102170.31;7399178;19;20006;-69
2023/09/25 03:27:41;;;;;;;7.18;5.00;;;;;;;8.56;86.15;102169.41;7396656;19;20019;-69
2023/09/25 03:30:10;;;;;;;7.20;6.20;;;;;;;8.54;86.13;102165.03;7399089;19;20019;-69
2023/09/25 03:32:41;;;;;;;6.18;5.55;;;;;;;8.52;86.04;102165.03;7398245;19;20018;-69
2023/09/25 03:35:10;;;;;;;11.43;6.10;;;;;;;8.50;85.90;102163.25;7398316;19;20418;-67
2023/09/25 03:37:39;;;;;;;7.65;5.95;;;;;;;8.47;86.29;102159.72;7397014;19;20035;-69
2023/09/25 03:40:07;;;;;;;5.95;5.35;;;;;;;8.47;86.32;102164.97;7396251;19;20010;-70
2023/09/25 03:42:36;;;;;;;7.85;6.85;;;;;;;8.47;86.32;102164.09;7395764;19;20486;-69
2023/09/25 03:45:05;;;;;;;7.50;6.70;;;;;;;8.45;86.62;102166.69;7397546;19;20375;-69
2023/09/25 03:47:33;;;;;;;6.82;6.13;;;;;;;8.45;86.69;102168.41;7398016;19;20014;-69
2023/09/25 03:50:04;;;;;;;9.90;6.72;;;;;;;8.47;86.71;102174.56;7395585;19;20022;-69
2023/09/25 03:52:34;;;;;;;9.18;7.50;;;;;;;8.47;86.85;102171.94;7398040;19;20031;-68
2023/09/25 03:55:02;;;;;;;8.45;7.53;;;;;;;8.46;86.78;102173.66;7397516;19;20011;-69
2023/09/25 03:57:31;;;;;;;8.27;6.15;;;;;;;8.46;87.00;102162.34;7396347;19;20027;-68
2023/09/25 04:00:08;;;;;;;8.00;6.03;;;;;;;8.41;86.79;102158.78;7397528;19;20018;-69
2023/09/25 04:02:36;;;;;;;6.03;5.28;;;;;;;8.37;86.90;102162.22;7396939;19;20478;-70
2023/09/25 04:05:08;;;;;;;6.97;5.70;;;;;;;8.31;86.62;102152.56;7397515;19;20035;-69
2023/09/25 04:07:43;;;;;;;6.65;4.93;;;;;;;8.24;86.53;102154.25;7397404;19;20074;-68
2023/09/25 04:10:12;;;;;;;7.65;5.28;;;;;;;8.19;86.58;102153.31;7397948;19;20089;-68
2023/09/25 04:12:41;;;;;;;5.82;5.13;;;;;;;8.16;86.45;102158.50;7397463;19;20014;-69
2023/09/25 04:15:12;;;;;;;8.50;5.20;;;;;;;8.12;86.38;102167.19;7397157;19;20015;-69
2023/09/25 04:17:41;;;;;;;7.05;5.85;;;;;;;8.09;86.17;102164.53;7396407;19;20018;-70
2023/09/25 04:20:18;;;;;;;7.57;5.15;;;;;;;8.06;86.44;102164.50;7394968;19;20034;-69
2023/09/25 04:22:47;;;;;;;7.65;5.45;;;;;;;8.04;86.31;102168.81;7398423;19;20014;-69
2023/09/25 04:25:19;;;;;;;8.20;5.25;;;;;;;8.01;86.42;102155.72;7396539;19;20519;-67
2023/09/25 04:27:54;;;;;;;7.28;5.72;;;;;;;7.99;86.38;102167.03;7395349;19;20019;-67
2023/09/25 04:30:26;;;;;;;7.75;5.10;;;;;;;7.97;86.13;102163.53;7396976;19;20027;-69
2023/09/25 04:32:56;;;;;;;7.63;5.95;;;;;;;7.93;86.28;102155.63;7396636;19;20014;-69
2023/09/25 04:35:28;;;;;;;6.35;5.75;;;;;;;7.92;86.30;102170.47;7396761;19;20041;-68
2023/09/25 04:37:57;;;;;;;7.93;5.35;;;;;;;7.90;86.28;102161.72;7394712;19;20481;-69
2023/09/25 04:40:30;;;;;;;6.95;6.25;;;;;;;7.87;86.27;102161.66;7395918;19;20018;-68
2023/09/25 04:43:00;;;;;;;12.68;7.80;;;;;;;7.84;86.12;102161.63;7395080;19;20031;-68
2023/09/25 04:45:29;;;;;;;7.25;5.50;;;;;;;7.81;86.34;102162.47;7395809;19;20010;-68
2023/09/25 04:47:57;;;;;;;6.85;5.20;;;;;;;7.79;86.23;102164.19;7396055;19;20042;-68
2023/09/25 04:50:28;;;;;;;7.63;5.32;;;;;;;7.77;86.47;102163.31;7394765;19;20015;-67
2023/09/25 04:52:57;;;;;;;6.47;5.47;;;;;;;7.74;86.42;102157.16;7394161;19;20039;-69
2023/09/25 04:55:25;;;;;;;7.68;6.40;;;;;;;7.73;86.21;102158.00;7394313;19;20188;-68
2023/09/25 04:57:54;;;;;;;7.20;5.85;;;;;;;7.71;86.32;102165.81;7394674;19;20015;-68
2023/09/25 05:00:24;;;;;;;5.70;4.90;;;;;;;7.69;86.20;102162.31;7394046;19;20014;-67
2023/09/25 05:02:54;;;;;;;5.97;5.10;;;;;;;7.67;86.38;102161.41;7393442;19;20073;-69
2023/09/25 05:05:22;;;;;;;5.60;4.90;;;;;;;7.66;86.40;102167.50;7394058;19;20415;-68
2023/09/25 05:07:55;;;;;;;7.13;5.13;;;;;;;7.65;86.37;102170.97;7394154;19;20023;-69
2023/09/25 05:10:25;;;;;;;5.63;4.85;;;;;;;7.64;86.20;102171.81;7395944;19;20186;-68
2023/09/25 05:12:55;;;;;;;7.97;5.80;;;;;;;7.62;86.17;102173.53;7393994;19;20010;-68
2023/09/25 05:15:23;;;;;;;6.32;5.72;;;;;;;7.59;86.09;102171.75;7394820;19;20023;-68
2023/09/25 05:17:52;;;;;;;7.13;5.50;;;;;;;7.58;86.03;102176.97;7393468;19;20010;-69
2023/09/25 05:20:25;;;;;;;6.82;5.05;;;;;;;7.57;86.04;102183.03;7392097;19;20010;-68
2023/09/25 05:22:57;;;;;;;7.63;5.20;;;;;;;7.56;85.99;102190.00;7394060;19;20066;-68
2023/09/25 05:25:26;;;;;;;6.72;5.25;;;;;;;7.54;86.31;102196.94;7393218;19;20486;-69
2023/09/25 05:28:00;;;;;;;6.18;5.40;;;;;;;7.54;86.13;102193.44;7393863;19;20011;-67
2023/09/25 05:30:28;;;;;;;5.85;5.07;;;;;;;7.53;86.19;102191.69;7395137;19;20106;-69
2023/09/25 05:32:56;;;;;;;7.65;5.55;;;;;;;7.52;86.28;102187.31;7394341;19;20022;-68
2023/09/25 05:35:25;;;;;;;7.55;6.00;;;;;;;7.52;86.27;102185.59;7394246;19;20015;-69
2023/09/25 05:37:56;;;;;;;7.78;5.80;;;;;;;7.51;86.40;102189.06;7391748;19;20017;-68
2023/09/25 05:40:25;;;;;;;7.53;6.13;;;;;;;7.52;86.57;102176.88;7394520;19;20018;-71
2023/09/25 05:42:54;;;;;;;7.07;5.32;;;;;;;7.53;86.30;102176.03;7393463;19;20011;-68
2023/09/25 05:45:23;;;;;;;6.80;6.10;;;;;;;7.53;86.79;102170.78;7392446;19;20070;-69
2023/09/25 05:47:51;;;;;;;6.60;5.90;;;;;;;7.55;86.46;102177.78;7394373;19;20010;-67
2023/09/25 05:50:20;;;;;;;6.82;5.82;;;;;;;7.55;86.45;102176.94;7393178;19;20014;-67
2023/09/25 05:52:49;;;;;;;10.23;6.20;;;;;;;7.55;86.49;102172.56;7394174;19;20022;-68
2023/09/25 05:55:20;;;;;;;8.90;6.35;;;;;;;7.56;86.63;102179.56;7394203;19;20021;-69
2023/09/25 05:57:49;;;;;;;10.82;6.72;;;;;;;7.58;86.82;102180.47;7392537;19;20015;-69
2023/09/25 06:00:18;;;;;;;9.10;6.18;;;;;;;7.59;86.65;102174.34;7391321;19;20495;-68
2023/09/25 06:02:47;;;;;;;9.23;6.32;;;;;;;7.62;86.92;102176.13;7392845;19;20481;-69
2023/09/25 06:05:15;;;;;;;8.70;6.22;;;;;;;7.65;87.05;102181.41;7393665;19;20026;-69
2023/09/25 06:07:44;;;;;;;8.18;6.63;;;;;;;7.69;87.15;102177.13;7397760;19;20011;-69
2023/09/25 06:10:15;;;;;;;9.57;6.97;;;;;;;7.72;86.94;102166.69;7398137;19;20018;-68
2023/09/25 06:12:47;;;;;;;11.10;6.45;;;;;;;7.77;87.20;102171.13;7400947;19;20078;-69
2023/09/25 06:15:16;;;;;;;15.27;6.45;;;;;;;7.82;87.42;102171.16;7400577;19;20481;-69
2023/09/25 06:17:45;;;;;;;10.25;6.93;;;;;;;7.87;87.38;102179.06;7399926;19;20031;-69
2023/09/25 06:20:17;;;;;;;11.73;7.00;;;;;;;7.91;87.62;102173.03;7401152;19;20025;-69
2023/09/25 06:22:46;;;;;;;9.63;7.15;;;;;;;7.96;87.51;102177.47;7401823;19;20007;-68
2023/09/25 06:25:17;;;;;;;10.07;6.75;;;;;;;8.02;87.56;102175.78;7398978;19;20011;-69
2023/09/25 06:27:48;;;;;;;9.40;7.38;;;;;;;8.08;87.72;102178.47;7397339;19;20366;-69
2023/09/25 06:30:19;;;;;;;10.23;7.57;;;;;;;8.14;87.91;102182.03;7397609;19;20002;-69
2023/09/25 06:32:47;;;;;;;12.18;8.70;;;;;;;8.23;88.09;102185.63;7399559;19;20015;-68
2023/09/25 06:35:17;;;;;;;10.90;9.52;;;;;;;8.30;88.10;102180.47;7399543;19;20011;-68
2023/09/25 06:37:46;;;;;;;14.50;10.75;;;;;;;8.37;88.34;102173.56;7396558;19;20006;-68
2023/09/25 06:40:15;;;;;;;15.85;11.48;;;;;;;8.48;88.86;102181.56;7399881;19;20014;-68
2023/09/25 06:42:44;;;;;;;15.02;11.35;;;;;;;8.58;89.25;102183.41;7399022;19;20023;-68
2023/09/25 06:45:15;;;;;;;14.50;11.40;;;;;;;8.69;89.60;102175.63;7399747;19;20031;-69
2023/09/25 06:47:46;;;;;;;13.55;11.75;;;;;;;8.79;90.08;102174.84;7400237;19;20031;-69
2023/09/25 06:50:15;;;;;;;13.13;10.68;;;;;;;8.91;90.10;102176.69;7399217;19;20014;-68
2023/09/25 06:52:43;;;;;;;14.88;11.10;;;;;;;9.01;90.44;102166.28;7399166;19;20019;-69
2023/09/25 06:55:12;;;;;;;16.08;10.82;;;;;;;9.11;90.79;102169.00;7399508;19;20027;-68
2023/09/25 06:57:41;;;;;;;13.50;10.75;;;;;;;9.23;91.19;102162.97;7398979;19;20024;-67
2023/09/25 07:00:13;;;;;;;11.55;10.40;;;;;;;9.35;91.35;102164.81;7399449;19;20031;-68
2023/09/25 07:02:45;;;;;;;14.93;12.45;;;;;;;9.47;91.52;102155.25;7399242;19;20011;-69
2023/09/25 07:05:13;;;;;;;12.85;10.73;;;;;;;9.59;91.72;102157.91;7399464;19;20078;-69
2023/09/25 07:07:42;;;;;;;11.18;9.55;;;;;;;9.69;91.71;102164.09;7399092;19;20038;-67
2023/09/25 07:10:12;;;;;;;10.60;9.50;;;;;;;9.80;91.83;102158.91;7397067;19;20027;-68
2023/09/25 07:12:41;;;;;;;10.55;9.45;;;;;;;9.89;91.72;102162.41;7396512;19;20025;-69
2023/09/25 07:15:11;;;;;;;10.70;9.57;;;;;;;9.99;91.89;102159.84;7398611;19;20342;-68
2023/09/25 07:17:39;;;;;;;12.18;9.88;;;;;;;10.08;91.80;102165.13;7393044;19;20474;-69
2023/09/25 07:20:12;;;;;;;12.50;10.15;;;;;;;10.17;91.87;102154.66;7398094;19;20015;-69
2023/09/25 07:22:41;;;;;;;9.57;8.57;;;;;;;10.28;91.85;102162.56;7397848;19;20402;-69
2023/09/25 07:25:11;;;;;;;10.52;9.23;;;;;;;10.37;91.70;102172.22;7398092;19;20066;-68
2023/09/25 07:27:39;;;;;;;9.55;8.55;;;;;;;10.47;91.91;102167.88;7398704;19;20014;-67
2023/09/25 07:30:10;;;;;;;10.90;8.75;;;;;;;10.56;91.89;102167.88;7395880;19;20400;-67
2023/09/25 07:32:42;;;;;;;11.23;9.90;;;;;;;10.66;91.65;102169.63;7395964;19;20022;-68
2023/09/25 07:35:15;;;;;;;11.50;8.98;;;;;;;10.75;91.83;102169.66;7395426;19;20011;-68
2023/09/25 07:37:44;;;;;;;10.80;9.68;;;;;;;10.85;91.46;102175.75;7400518;19;20006;-69
2023/09/25 07:40:14;;;;;;;11.05;9.57;;;;;;;10.95;91.72;102166.13;7397528;19;20006;-69
2023/09/25 07:42:43;;;;;;;11.07;8.57;;;;;;;11.04;91.60;102170.50;7397143;19;20019;-68
2023/09/25 07:45:12;;;;;;;10.65;8.65;;;;;;;11.10;91.42;102160.00;7395097;19;20024;-69
2023/09/25 07:47:41;;;;;;;9.68;8.15;;;;;;;11.22;91.31;102170.50;7397870;19;20015;-68
2023/09/25 07:50:10;;;;;;;13.57;8.63;;;;;;;11.31;91.37;102172.25;7397011;19;20025;-68
2023/09/25 07:52:43;;;;;;;9.15;8.02;;;;;;;11.41;91.26;102165.19;7395424;19;20007;-68
2023/09/25 07:55:13;;;;;;;8.93;8.10;;;;;;;11.50;91.16;102164.28;7397986;19;20014;-68
2023/09/25 07:57:43;;;;;;;9.90;8.52;;;;;;;11.61;91.10;102159.00;7397087;19;20013;-68
2023/09/25 08:00:25;;;;;;;10.02;8.13;;;;;;;11.69;90.84;102157.22;7395482;19;20011;-68
2023/09/25 08:02:55;;;;;;;9.50;7.75;;;;;;;11.79;90.61;102156.31;7397225;19;20025;-68
2023/09/25 08:05:24;;;;;;;10.70;7.65;;;;;;;11.88;90.67;102155.41;7397595;19;20018;-68
2023/09/25 08:07:55;;;;;;;10.02;7.38;;;;;;;11.97;90.56;102144.88;7396964;19;20015;-67
2023/09/25 08:10:23;;;;;;;8.55;7.65;;;;;;;12.06;90.35;102147.44;7394818;19;20489;-69
2023/09/25 08:12:52;;;;;;;12.18;9.13;;;;;;;12.18;90.00;102148.25;7395573;19;20027;-67
2023/09/25 08:15:21;;;;;;;9.32;8.38;;;;;;;12.28;89.83;102151.72;7396735;19;20023;-68
2023/09/25 08:17:50;;;;;;;10.52;8.77;;;;;;;12.36;89.98;102153.41;7396181;19;20073;-69
2023/09/25 08:20:20;;;;;;;12.38;9.57;;;;;;;12.47;89.42;102155.97;7396321;19;20014;-69
2023/09/25 08:22:50;;;;;;;9.55;7.60;;;;;;;12.58;89.42;102157.66;7396741;19;20091;-69
2023/09/25 08:25:21;;;;;;;9.00;7.00;;;;;;;12.67;89.23;102152.31;7396617;19;20011;-68
2023/09/25 08:27:51;;;;;;;12.52;6.80;;;;;;;12.78;88.81;102152.22;7396440;19;20086;-67
2023/09/25 08:30:19;;;;;;;6.90;6.20;;;;;;;12.87;88.39;102154.78;7394594;19;20085;-69
2023/09/25 08:32:49;;;;;;;7.03;6.22;;;;;;;12.94;88.37;102151.22;7394985;19;20085;-68
2023/09/25 08:35:17;;;;;;;6.35;5.50;;;;;;;13.04;88.11;102159.88;7394992;19;20014;-68
2023/09/25 08:37:47;;;;;;;6.70;6.00;;;;;;;13.13;87.78;102158.91;7394264;19;20015;-68
2023/09/25 08:40:16;;;;;;;7.80;5.97;;;;;;;13.25;87.41;102155.31;7393971;19;20011;-69
2023/09/25 08:42:49;;;;;;;5.70;5.20;;;;;;;13.35;87.37;102160.44;7395093;19;20474;-68
2023/09/25 08:45:17;;;;;;;6.45;5.80;;;;;;;13.45;87.07;102160.41;7395648;19;20364;-68
2023/09/25 08:47:47;;;;;;;6.32;5.47;;;;;;;13.57;86.52;102157.59;7394540;19;20027;-68
2023/09/25 08:50:15;;;;;;;5.95;5.03;;;;;;;13.66;86.00;102153.97;7394864;19;20014;-69
2023/09/25 08:52:51;;;;;;;6.80;5.22;;;;;;;13.74;85.81;102157.41;7394371;19;20018;-69
2023/09/25 08:55:19;;;;;;;6.10;5.00;;;;;;;13.83;85.45;102154.66;7395292;19;20495;-69
2023/09/25 08:57:51;;;;;;;5.95;4.82;;;;;;;13.95;84.74;102147.47;7395036;19;20024;-69
2023/09/25 09:00:19;;;;;;;6.57;4.78;;;;;;;14.07;84.39;102143.81;7393828;19;20015;-67
2023/09/25 09:02:48;;;;;;;6.28;4.63;;;;;;;14.21;83.81;102143.59;7395145;19;20018;-68
2023/09/25 09:05:16;;;;;;;5.45;4.50;;;;;;;14.33;83.02;102151.31;7394926;19;20017;-68
2023/09/25 09:07:58;;;;;;;4.90;4.40;;;;;;;14.45;82.57;102147.63;7395351;19;20082;-68
2023/09/25 09:10:32;;;;;;;7.30;4.88;;;;;;;14.57;81.98;102143.91;7394145;19;20104;-67
2023/09/25 09:13:08;;;;;;;5.78;4.70;;;;;;;14.68;81.64;102143.78;7394905;19;20014;-68
2023/09/25 09:15:37;;;;;;;8.25;4.95;;;;;;;14.77;80.95;102144.50;7395295;19;20038;-68
2023/09/25 09:18:20;;;;;;;5.95;4.40;;;;;;;14.87;80.28;102141.69;7394740;19;20011;-68
2023/09/25 09:20:49;;;;;;;5.40;4.07;;;;;;;14.99;79.67;102138.84;7392961;19;20070;-68
2023/09/25 09:23:17;;;;;;;4.18;3.50;;;;;;;15.10;79.02;102136.00;7392419;19;20037;-68
2023/09/25 09:25:47;;;;;;;5.00;3.90;;;;;;;15.21;78.09;102134.03;7394566;19;20368;-68
2023/09/25 09:28:19;;;;;;;5.78;3.92;;;;;;;15.35;76.98;102124.97;7395248;19;20007;-68
2023/09/25 09:30:47;;;;;;;12.38;8.95;;;;;;;15.49;76.73;102128.19;7394330;19;20419;-68
2023/09/25 09:33:15;;;;;;;5.63;4.28;;;;;;;15.60;75.91;102120.03;7393569;19;20375;-69
2023/09/25 09:35:44;;;;;;;7.75;4.57;;;;;;;15.70;75.43;102126.03;7392965;19;20018;-69
2023/09/25 09:38:13;;;;;;;4.35;3.28;;;;;;;15.79;74.09;102116.09;7395356;19;20034;-67
2023/09/25 09:40:42;;;;;;;5.13;3.72;;;;;;;15.90;72.96;102110.59;7398745;19;20014;-69
2023/09/25 09:43:11;;;;;;;7.18;4.05;;;;;;;16.04;71.58;102104.13;7401105;19;20018;-69
2023/09/25 09:45:44;;;;;;;4.60;3.60;;;;;;;16.19;69.83;102110.84;7401691;19;20018;-69
2023/09/25 09:48:15;;;;;;;4.30;3.00;;;;;;;16.34;68.70;102104.31;7401994;19;20066;-68
2023/09/25 09:50:52;;;;;;;4.05;2.78;;;;;;;16.50;67.83;102102.16;7398248;19;20034;-69
2023/09/25 09:53:20;;;;;;;3.63;2.90;;;;;;;16.65;67.04;102095.59;7400928;19;20017;-68
2023/09/25 09:55:50;;;;;;;4.78;2.47;;;;;;;16.77;66.26;102093.50;7401603;19;20027;-68
2023/09/25 09:58:18;;;;;;;10.13;3.60;;;;;;;16.89;66.17;102094.94;7401696;19;20035;-68
2023/09/25 10:00:50;;;;;;;4.47;2.90;;;;;;;17.01;65.38;102092.91;7399061;19;20011;-68
2023/09/25 10:03:19;;;;;;;3.60;2.50;;;;;;;17.12;64.92;102088.19;7398964;19;20074;-68
2023/09/25 10:05:50;;;;;;;3.58;2.35;;;;;;;17.20;64.19;102086.19;7401006;19;20019;-69
2023/09/25 10:08:21;;;;;;;7.03;2.50;;;;;;;17.29;63.54;102085.06;7401609;19;20018;-68
2023/09/25 10:10:52;;;;;;;3.25;2.38;;;;;;;17.39;63.31;102088.34;7401840;19;20014;-68
2023/09/25 10:13:25;;;;;;;4.22;2.78;;;;;;;17.49;62.27;102084.50;7399865;19;20015;-68
2023/09/25 10:16:01;;;;;;;3.53;2.63;;;;;;;17.57;61.62;102086.91;7401774;19;20025;-69
2023/09/25 10:18:29;;;;;;;3.85;2.40;;;;;;;17.64;61.58;102080.50;7401188;19;20027;-69
2023/09/25 10:21:08;;;;;;;3.15;2.72;;;;;;;17.74;60.83;102075.78;7400681;19;20024;-68
2023/09/25 10:23:37;;;;;;;3.85;2.88;;;;;;;17.82;61.18;102081.72;7397198;19;20011;-68
2023/09/25 10:26:05;;;;;;;3.67;2.83;;;;;;;17.88;60.60;102084.19;7400172;19;20537;-68
2023/09/25 10:28:42;;;;;;;2.95;2.28;;;;;;;17.98;59.94;102074.16;7397521;19;20035;-68
2023/09/25 10:31:28;;;;;;;4.53;2.10;;;;;;;18.10;59.20;102077.34;7399965;19;20018;-67
2023/09/25 10:33:59;;;;;;;3.13;2.20;;;;;;;18.21;59.38;102075.22;7397388;19;20010;-68
2023/09/25 10:36:38;;;;;;;5.55;2.65;;;;;;;18.32;58.59;102072.22;7400684;19;20014;-69
2023/09/25 10:39:16;;;;;;;4.65;2.88;;;;;;;18.38;58.88;102067.56;7399903;19;20011;-69
2023/09/25 10:41:45;;;;;;;5.03;2.20;;;;;;;18.46;58.85;102067.28;7400894;19;20046;-69
2023/09/25 10:44:21;;;;;;;2.53;2.33;;;;;;;18.54;58.11;102059.94;7397686;19;20030;-69
2023/09/25 10:46:52;;;;;;;3.63;2.30;;;;;;;18.62;57.51;102057.00;7400039;19;20076;-69
2023/09/25 10:49:20;;;;;;;3.20;2.03;;;;;;;18.70;56.99;102056.75;7397805;19;20023;-69
2023/09/25 10:51:49;;;;;;;4.75;2.35;;;;;;;18.79;56.19;102053.78;7396289;19;20019;-69
2023/09/25 10:54:17;;;;;;;3.28;2.38;;;;;;;18.87;56.07;102057.03;7397736;19;20363;-69
2023/09/25 10:56:46;;;;;;;3.15;1.95;;;;;;;18.93;55.94;102045.34;7399640;19;20031;-68
2023/09/25 10:59:16;;;;;;;3.60;1.90;;;;;;;18.99;55.92;102046.91;7398300;19;20006;-66
2023/09/25 11:01:44;;;;;;;4.40;2.00;;;;;;;19.02;55.69;102045.00;7399507;19;20344;-68
2023/09/25 11:04:15;;;;;;;3.67;2.20;;;;;;;19.08;55.53;102037.72;7397631;19;20064;-68
2023/09/25 11:06:44;;;;;;;2.75;2.08;;;;;;;19.12;55.05;102034.00;7396578;19;20023;-69
2023/09/25 11:09:18;;;;;;;3.47;2.15;;;;;;;19.18;53.97;102034.66;7398455;19;20010;-69
2023/09/25 11:11:47;;;;;;;4.07;1.80;;;;;;;19.26;54.08;102030.81;7398350;19;20515;-67
2023/09/25 11:14:15;;;;;;;3.72;1.83;;;;;;;19.31;53.49;102029.75;7395789;19;20022;-68
2023/09/25 11:16:44;;;;;;;3.17;2.08;;;;;;;19.35;53.10;102028.69;7395155;19;20024;-68
2023/09/25 11:19:18;;;;;;;3.45;1.83;;;;;;;19.40;52.51;102023.19;7397013;19;20494;-68
2023/09/25 11:21:50;;;;;;;4.13;1.77;;;;;;;19.46;52.60;102022.97;7398221;19;20023;-67
2023/09/25 11:24:20;;;;;;;7.90;3.08;;;;;;;19.52;52.74;102024.50;7395579;19;20015;-68
2023/09/25 11:26:48;;;;;;;3.15;2.30;;;;;;;19.57;52.48;102021.69;7397514;19;20031;-68
2023/09/25 11:29:17;;;;;;;2.33;1.80;;;;;;;19.61;51.69;102020.63;7397691;19;20010;-68
2023/09/25 11:31:45;;;;;;;3.13;1.90;;;;;;;19.69;51.71;102015.88;7398233;19;20027;-68
2023/09/25 11:34:13;;;;;;;2.55;2.00;;;;;;;19.75;51.66;102012.97;7395986;19;20078;-68
2023/09/25 11:36:48;;;;;;;1.92;1.40;;;;;;;19.83;51.01;102004.69;7397619;19;20015;-69
2023/09/25 11:39:17;;;;;;;3.22;1.90;;;;;;;19.89;51.95;102008.88;7397010;19;20525;-68
2023/09/25 11:41:45;;;;;;;3.28;1.60;;;;;;;19.96;51.48;101995.25;7397586;19;20011;-69